sensor_id;sensor_type;location;lat;lon;timestamp;P1;durP1;ratioP1;P2;durP2;ratioP2
60203;SDS011;46068;52.132;4.618;2023-06-14T00:00:53;5.63;;;2.47;;
60203;SDS011;46068;52.132;4.618;2023-06-14T00:03:22;6.32;;;2.92;;
60203;SDS011;46068;52.132;4.618;2023-06-14T00:05:49;9.00;;;3.25;;
60203;SDS011;46068;52.132;4.618;2023-06-14T00:08:16;8.15;;;2.88;;
60203;SDS011;46068;52.132;4.618;2023-06-14T00:10:43;6.40;;;2.58;;
60203;SDS011;46068;52.132;4.618;2023-06-14T00:13:10;6.60;;;2.47;;
60203;SDS011;46068;52.132;4.618;2023-06-14T00:15:38;6.70;;;2.65;;
60203;SDS011;46068;52.132;4.618;2023-06-14T00:18:04;4.72;;;2.88;;
60203;SDS011;46068;52.132;4.618;2023-06-14T00:20:32;7.95;;;2.88;;
60203;SDS011;46068;52.132;4.618;2023-06-14T00:22:58;5.85;;;2.58;;
60203;SDS011;46068;52.132;4.618;2023-06-14T00:25:25;6.88;;;2.80;;
60203;SDS011;46068;52.132;4.618;2023-06-14T00:27:51;10.27;;;3.20;;
60203;SDS011;46068;52.132;4.618;2023-06-14T00:30:18;9.55;;;3.03;;
60203;SDS011;46068;52.132;4.618;2023-06-14T00:32:46;8.77;;;2.95;;
60203;SDS011;46068;52.132;4.618;2023-06-14T00:35:13;8.25;;;2.92;;
60203;SDS011;46068;52.132;4.618;2023-06-14T00:37:40;9.45;;;3.00;;
60203;SDS011;46068;52.132;4.618;2023-06-14T00:40:06;12.95;;;3.00;;
60203;SDS011;46068;52.132;4.618;2023-06-14T00:42:33;8.02;;;2.83;;
60203;SDS011;46068;52.132;4.618;2023-06-14T00:44:59;4.88;;;2.80;;
60203;SDS011;46068;52.132;4.618;2023-06-14T00:47:25;5.50;;;2.67;;
60203;SDS011;46068;52.132;4.618;2023-06-14T00:49:53;7.88;;;2.90;;
60203;SDS011;46068;52.132;4.618;2023-06-14T00:52:21;6.45;;;2.92;;
60203;SDS011;46068;52.132;4.618;2023-06-14T00:54:49;11.23;;;2.47;;
60203;SDS011;46068;52.132;4.618;2023-06-14T00:57:15;5.05;;;2.53;;
60203;SDS011;46068;52.132;4.618;2023-06-14T00:59:42;8.55;;;2.63;;
60203;SDS011;46068;52.132;4.618;2023-06-14T01:02:09;4.45;;;2.53;;
60203;SDS011;46068;52.132;4.618;2023-06-14T01:04:36;6.53;;;2.53;;
60203;SDS011;46068;52.132;4.618;2023-06-14T01:07:07;7.20;;;3.05;;
60203;SDS011;46068;52.132;4.618;2023-06-14T01:09:44;6.20;;;2.47;;
60203;SDS011;46068;52.132;4.618;2023-06-14T01:12:15;11.13;;;2.83;;
60203;SDS011;46068;52.132;4.618;2023-06-14T01:14:47;5.60;;;2.40;;
60203;SDS011;46068;52.132;4.618;2023-06-14T01:17:14;7.20;;;2.70;;
60203;SDS011;46068;52.132;4.618;2023-06-14T01:19:41;7.80;;;2.70;;
60203;SDS011;46068;52.132;4.618;2023-06-14T01:22:10;5.82;;;2.35;;
60203;SDS011;46068;52.132;4.618;2023-06-14T01:24:38;5.82;;;2.78;;
60203;SDS011;46068;52.132;4.618;2023-06-14T01:27:09;7.35;;;2.70;;
60203;SDS011;46068;52.132;4.618;2023-06-14T01:29:37;4.25;;;2.45;;
60203;SDS011;46068;52.132;4.618;2023-06-14T01:32:04;5.38;;;2.22;;
60203;SDS011;46068;52.132;4.618;2023-06-14T01:34:30;5.30;;;2.63;;
60203;SDS011;46068;52.132;4.618;2023-06-14T01:36:56;6.63;;;2.88;;
60203;SDS011;46068;52.132;4.618;2023-06-14T01:39:23;6.68;;;2.35;;
60203;SDS011;46068;52.132;4.618;2023-06-14T01:41:51;7.35;;;2.67;;
60203;SDS011;46068;52.132;4.618;2023-06-14T01:44:17;13.05;;;3.05;;
60203;SDS011;46068;52.132;4.618;2023-06-14T01:46:44;10.73;;;2.97;;
60203;SDS011;46068;52.132;4.618;2023-06-14T01:49:11;7.00;;;2.65;;
60203;SDS011;46068;52.132;4.618;2023-06-14T01:51:37;9.75;;;2.78;;
60203;SDS011;46068;52.132;4.618;2023-06-14T01:54:03;4.72;;;2.60;;
60203;SDS011;46068;52.132;4.618;2023-06-14T01:56:30;13.40;;;3.08;;
60203;SDS011;46068;52.132;4.618;2023-06-14T01:58:58;4.82;;;2.63;;
60203;SDS011;46068;52.132;4.618;2023-06-14T02:01:25;6.88;;;2.70;;
60203;SDS011;46068;52.132;4.618;2023-06-14T02:03:51;7.45;;;2.95;;
60203;SDS011;46068;52.132;4.618;2023-06-14T02:06:18;8.48;;;3.00;;
60203;SDS011;46068;52.132;4.618;2023-06-14T02:08:44;3.85;;;2.60;;
60203;SDS011;46068;52.132;4.618;2023-06-14T02:11:11;7.85;;;2.72;;
60203;SDS011;46068;52.132;4.618;2023-06-14T02:13:37;10.10;;;3.00;;
60203;SDS011;46068;52.132;4.618;2023-06-14T02:16:05;6.80;;;2.97;;
60203;SDS011;46068;52.132;4.618;2023-06-14T02:18:32;10.55;;;3.03;;
60203;SDS011;46068;52.132;4.618;2023-06-14T02:20:58;4.95;;;2.78;;
60203;SDS011;46068;52.132;4.618;2023-06-14T02:23:24;7.18;;;2.70;;
60203;SDS011;46068;52.132;4.618;2023-06-14T02:25:50;5.65;;;2.80;;
60203;SDS011;46068;52.132;4.618;2023-06-14T02:28:17;7.72;;;2.75;;
60203;SDS011;46068;52.132;4.618;2023-06-14T02:30:43;7.45;;;2.60;;
60203;SDS011;46068;52.132;4.618;2023-06-14T02:33:11;7.45;;;2.50;;
60203;SDS011;46068;52.132;4.618;2023-06-14T02:35:38;5.63;;;2.30;;
60203;SDS011;46068;52.132;4.618;2023-06-14T02:38:04;9.20;;;2.33;;
60203;SDS011;46068;52.132;4.618;2023-06-14T02:40:30;7.43;;;2.40;;
60203;SDS011;46068;52.132;4.618;2023-06-14T02:42:56;8.07;;;3.10;;
60203;SDS011;46068;52.132;4.618;2023-06-14T02:45:23;10.10;;;2.80;;
60203;SDS011;46068;52.132;4.618;2023-06-14T02:47:50;11.20;;;2.65;;
60203;SDS011;46068;52.132;4.618;2023-06-14T02:50:17;7.80;;;2.80;;
60203;SDS011;46068;52.132;4.618;2023-06-14T02:52:44;8.43;;;2.90;;
60203;SDS011;46068;52.132;4.618;2023-06-14T02:55:10;7.18;;;2.63;;
60203;SDS011;46068;52.132;4.618;2023-06-14T02:57:36;8.65;;;2.92;;
60203;SDS011;46068;52.132;4.618;2023-06-14T03:00:03;4.65;;;2.80;;
60203;SDS011;46068;52.132;4.618;2023-06-14T03:02:30;4.63;;;2.80;;
60203;SDS011;46068;52.132;4.618;2023-06-14T03:04:56;7.47;;;2.95;;
60203;SDS011;46068;52.132;4.618;2023-06-14T03:07:27;6.38;;;2.75;;
60203;SDS011;46068;52.132;4.618;2023-06-14T03:09:54;6.85;;;2.40;;
60203;SDS011;46068;52.132;4.618;2023-06-14T03:12:21;8.02;;;2.58;;
60203;SDS011;46068;52.132;4.618;2023-06-14T03:14:48;9.07;;;2.72;;
60203;SDS011;46068;52.132;4.618;2023-06-14T03:17:15;6.68;;;2.53;;
60203;SDS011;46068;52.132;4.618;2023-06-14T03:19:42;6.03;;;2.60;;
60203;SDS011;46068;52.132;4.618;2023-06-14T03:22:08;5.20;;;2.30;;
60203;SDS011;46068;52.132;4.618;2023-06-14T03:24:38;7.03;;;2.42;;
60203;SDS011;46068;52.132;4.618;2023-06-14T03:27:04;6.43;;;2.83;;
60203;SDS011;46068;52.132;4.618;2023-06-14T03:29:31;9.18;;;2.65;;
60203;SDS011;46068;52.132;4.618;2023-06-14T03:31:58;9.15;;;2.65;;
60203;SDS011;46068;52.132;4.618;2023-06-14T03:34:24;4.68;;;2.45;;
60203;SDS011;46068;52.132;4.618;2023-06-14T03:36:50;7.28;;;2.40;;
60203;SDS011;46068;52.132;4.618;2023-06-14T03:39:17;6.53;;;2.42;;
60203;SDS011;46068;52.132;4.618;2023-06-14T03:41:44;6.90;;;2.60;;
60203;SDS011;46068;52.132;4.618;2023-06-14T03:44:11;8.90;;;2.40;;
60203;SDS011;46068;52.132;4.618;2023-06-14T03:46:37;6.00;;;2.30;;
60203;SDS011;46068;52.132;4.618;2023-06-14T03:49:03;5.15;;;2.70;;
60203;SDS011;46068;52.132;4.618;2023-06-14T03:51:29;6.90;;;2.55;;
60203;SDS011;46068;52.132;4.618;2023-06-14T03:53:56;7.85;;;2.42;;
60203;SDS011;46068;52.132;4.618;2023-06-14T03:56:22;8.43;;;2.60;;
60203;SDS011;46068;52.132;4.618;2023-06-14T03:58:50;7.50;;;2.50;;
60203;SDS011;46068;52.132;4.618;2023-06-14T04:01:16;5.55;;;2.55;;
60203;SDS011;46068;52.132;4.618;2023-06-14T04:03:42;3.83;;;2.40;;
60203;SDS011;46068;52.132;4.618;2023-06-14T04:06:08;7.95;;;2.35;;
60203;SDS011;46068;52.132;4.618;2023-06-14T04:08:35;9.55;;;2.30;;
60203;SDS011;46068;52.132;4.618;2023-06-14T04:11:01;12.48;;;2.13;;
60203;SDS011;46068;52.132;4.618;2023-06-14T04:13:27;9.05;;;2.47;;
60203;SDS011;46068;52.132;4.618;2023-06-14T04:15:55;9.70;;;3.17;;
60203;SDS011;46068;52.132;4.618;2023-06-14T04:18:21;4.75;;;2.03;;
60203;SDS011;46068;52.132;4.618;2023-06-14T04:20:48;6.65;;;2.33;;
60203;SDS011;46068;52.132;4.618;2023-06-14T04:23:15;9.40;;;2.20;;
60203;SDS011;46068;52.132;4.618;2023-06-14T04:25:43;6.53;;;2.47;;
60203;SDS011;46068;52.132;4.618;2023-06-14T04:28:10;7.90;;;2.88;;
60203;SDS011;46068;52.132;4.618;2023-06-14T04:30:36;6.57;;;2.38;;
60203;SDS011;46068;52.132;4.618;2023-06-14T04:33:04;7.35;;;2.20;;
60203;SDS011;46068;52.132;4.618;2023-06-14T04:35:31;13.02;;;2.78;;
60203;SDS011;46068;52.132;4.618;2023-06-14T04:37:58;11.13;;;2.40;;
60203;SDS011;46068;52.132;4.618;2023-06-14T04:40:24;6.72;;;2.22;;
60203;SDS011;46068;52.132;4.618;2023-06-14T04:42:50;5.75;;;2.28;;
60203;SDS011;46068;52.132;4.618;2023-06-14T04:45:17;7.53;;;2.45;;
60203;SDS011;46068;52.132;4.618;2023-06-14T04:47:44;4.32;;;2.53;;
60203;SDS011;46068;52.132;4.618;2023-06-14T04:50:12;5.28;;;1.95;;
60203;SDS011;46068;52.132;4.618;2023-06-14T04:52:39;8.88;;;2.00;;
60203;SDS011;46068;52.132;4.618;2023-06-14T04:55:06;6.55;;;2.25;;
60203;SDS011;46068;52.132;4.618;2023-06-14T04:57:32;5.30;;;1.92;;
60203;SDS011;46068;52.132;4.618;2023-06-14T05:00:00;6.30;;;2.20;;
60203;SDS011;46068;52.132;4.618;2023-06-14T05:02:29;6.90;;;2.38;;
60203;SDS011;46068;52.132;4.618;2023-06-14T05:04:56;7.80;;;2.40;;
60203;SDS011;46068;52.132;4.618;2023-06-14T05:07:24;10.18;;;2.33;;
60203;SDS011;46068;52.132;4.618;2023-06-14T05:09:50;9.30;;;2.58;;
60203;SDS011;46068;52.132;4.618;2023-06-14T05:12:16;10.63;;;2.47;;
60203;SDS011;46068;52.132;4.618;2023-06-14T05:14:43;5.45;;;2.08;;
60203;SDS011;46068;52.132;4.618;2023-06-14T05:17:10;5.63;;;2.83;;
60203;SDS011;46068;52.132;4.618;2023-06-14T05:19:36;5.38;;;2.05;;
60203;SDS011;46068;52.132;4.618;2023-06-14T05:22:02;6.32;;;2.15;;
60203;SDS011;46068;52.132;4.618;2023-06-14T05:24:30;11.15;;;2.38;;
60203;SDS011;46068;52.132;4.618;2023-06-14T05:26:57;5.38;;;2.05;;
60203;SDS011;46068;52.132;4.618;2023-06-14T05:29:23;4.90;;;2.35;;
60203;SDS011;46068;52.132;4.618;2023-06-14T05:31:49;6.45;;;2.17;;
60203;SDS011;46068;52.132;4.618;2023-06-14T05:34:16;10.60;;;2.10;;
60203;SDS011;46068;52.132;4.618;2023-06-14T05:36:42;7.78;;;2.40;;
60203;SDS011;46068;52.132;4.618;2023-06-14T05:39:08;4.25;;;2.42;;
60203;SDS011;46068;52.132;4.618;2023-06-14T05:41:36;9.20;;;2.60;;
60203;SDS011;46068;52.132;4.618;2023-06-14T05:44:02;5.35;;;2.35;;
60203;SDS011;46068;52.132;4.618;2023-06-14T05:46:29;8.10;;;2.58;;
60203;SDS011;46068;52.132;4.618;2023-06-14T05:48:55;3.92;;;2.75;;
60203;SDS011;46068;52.132;4.618;2023-06-14T05:51:22;6.55;;;2.50;;
60203;SDS011;46068;52.132;4.618;2023-06-14T05:53:50;7.63;;;2.65;;
60203;SDS011;46068;52.132;4.618;2023-06-14T05:56:17;6.95;;;2.35;;
60203;SDS011;46068;52.132;4.618;2023-06-14T05:58:45;10.23;;;2.33;;
60203;SDS011;46068;52.132;4.618;2023-06-14T06:01:11;7.38;;;2.45;;
60203;SDS011;46068;52.132;4.618;2023-06-14T06:03:38;4.55;;;2.17;;
60203;SDS011;46068;52.132;4.618;2023-06-14T06:06:04;7.75;;;2.40;;
60203;SDS011;46068;52.132;4.618;2023-06-14T06:08:31;6.47;;;2.58;;
60203;SDS011;46068;52.132;4.618;2023-06-14T06:10:58;6.88;;;2.38;;
60203;SDS011;46068;52.132;4.618;2023-06-14T06:13:25;6.88;;;2.60;;
60203;SDS011;46068;52.132;4.618;2023-06-14T06:15:52;9.07;;;2.53;;
60203;SDS011;46068;52.132;4.618;2023-06-14T06:18:19;4.72;;;2.28;;
60203;SDS011;46068;52.132;4.618;2023-06-14T06:20:45;4.22;;;2.10;;
60203;SDS011;46068;52.132;4.618;2023-06-14T06:23:12;6.00;;;2.10;;
60203;SDS011;46068;52.132;4.618;2023-06-14T06:25:38;5.65;;;2.58;;
60203;SDS011;46068;52.132;4.618;2023-06-14T06:28:05;9.40;;;2.30;;
60203;SDS011;46068;52.132;4.618;2023-06-14T06:30:31;7.95;;;2.30;;
60203;SDS011;46068;52.132;4.618;2023-06-14T06:32:59;6.28;;;2.40;;
60203;SDS011;46068;52.132;4.618;2023-06-14T06:35:25;7.88;;;2.63;;
60203;SDS011;46068;52.132;4.618;2023-06-14T06:37:51;11.27;;;2.83;;
60203;SDS011;46068;52.132;4.618;2023-06-14T06:40:18;7.95;;;2.60;;
60203;SDS011;46068;52.132;4.618;2023-06-14T06:42:44;5.35;;;2.20;;
60203;SDS011;46068;52.132;4.618;2023-06-14T06:45:10;5.15;;;2.22;;
60203;SDS011;46068;52.132;4.618;2023-06-14T06:47:37;8.60;;;2.53;;
60203;SDS011;46068;52.132;4.618;2023-06-14T06:50:06;5.65;;;2.45;;
60203;SDS011;46068;52.132;4.618;2023-06-14T06:52:33;7.85;;;2.47;;
60203;SDS011;46068;52.132;4.618;2023-06-14T06:54:59;9.23;;;2.60;;
60203;SDS011;46068;52.132;4.618;2023-06-14T06:57:25;4.60;;;2.38;;
60203;SDS011;46068;52.132;4.618;2023-06-14T06:59:53;7.68;;;2.45;;
60203;SDS011;46068;52.132;4.618;2023-06-14T07:02:19;5.55;;;2.25;;
60203;SDS011;46068;52.132;4.618;2023-06-14T07:04:45;5.80;;;2.25;;
60203;SDS011;46068;52.132;4.618;2023-06-14T07:07:13;9.60;;;3.13;;
60203;SDS011;46068;52.132;4.618;2023-06-14T07:09:39;11.07;;;2.03;;
60203;SDS011;46068;52.132;4.618;2023-06-14T07:12:06;6.38;;;2.40;;
60203;SDS011;46068;52.132;4.618;2023-06-14T07:14:33;7.28;;;2.80;;
60203;SDS011;46068;52.132;4.618;2023-06-14T07:16:59;6.95;;;2.80;;
60203;SDS011;46068;52.132;4.618;2023-06-14T07:19:25;6.07;;;2.30;;
60203;SDS011;46068;52.132;4.618;2023-06-14T07:21:52;5.00;;;2.88;;
60203;SDS011;46068;52.132;4.618;2023-06-14T07:24:20;4.97;;;2.38;;
60203;SDS011;46068;52.132;4.618;2023-06-14T07:26:47;8.13;;;2.55;;
60203;SDS011;46068;52.132;4.618;2023-06-14T07:29:14;7.72;;;2.63;;
60203;SDS011;46068;52.132;4.618;2023-06-14T07:31:41;10.20;;;2.40;;
60203;SDS011;46068;52.132;4.618;2023-06-14T07:34:07;4.80;;;2.58;;
60203;SDS011;46068;52.132;4.618;2023-06-14T07:36:34;7.15;;;2.80;;
60203;SDS011;46068;52.132;4.618;2023-06-14T07:39:01;5.05;;;2.50;;
60203;SDS011;46068;52.132;4.618;2023-06-14T07:41:29;5.07;;;1.98;;
60203;SDS011;46068;52.132;4.618;2023-06-14T07:43:56;7.90;;;2.92;;
60203;SDS011;46068;52.132;4.618;2023-06-14T07:46:22;6.90;;;2.53;;
60203;SDS011;46068;52.132;4.618;2023-06-14T07:48:48;7.35;;;2.95;;
60203;SDS011;46068;52.132;4.618;2023-06-14T07:51:15;4.55;;;2.70;;
60203;SDS011;46068;52.132;4.618;2023-06-14T07:53:41;5.40;;;2.17;;
60203;SDS011;46068;52.132;4.618;2023-06-14T07:56:08;7.13;;;2.85;;
60203;SDS011;46068;52.132;4.618;2023-06-14T07:58:35;8.25;;;2.58;;
60203;SDS011;46068;52.132;4.618;2023-06-14T08:01:01;4.50;;;2.30;;
60203;SDS011;46068;52.132;4.618;2023-06-14T08:03:31;7.22;;;2.60;;
60203;SDS011;46068;52.132;4.618;2023-06-14T08:05:57;6.32;;;2.75;;
60203;SDS011;46068;52.132;4.618;2023-06-14T08:08:23;7.55;;;2.50;;
60203;SDS011;46068;52.132;4.618;2023-06-14T08:10:50;11.57;;;2.78;;
60203;SDS011;46068;52.132;4.618;2023-06-14T08:13:16;8.63;;;3.05;;
60203;SDS011;46068;52.132;4.618;2023-06-14T08:15:43;7.55;;;2.80;;
60203;SDS011;46068;52.132;4.618;2023-06-14T08:18:10;8.93;;;3.00;;
60203;SDS011;46068;52.132;4.618;2023-06-14T08:20:36;7.57;;;2.92;;
60203;SDS011;46068;52.132;4.618;2023-06-14T08:23:02;9.18;;;3.08;;
60203;SDS011;46068;52.132;4.618;2023-06-14T08:25:29;8.32;;;3.10;;
60203;SDS011;46068;52.132;4.618;2023-06-14T08:27:55;6.43;;;2.60;;
60203;SDS011;46068;52.132;4.618;2023-06-14T08:30:21;7.63;;;2.28;;
60203;SDS011;46068;52.132;4.618;2023-06-14T08:32:49;10.70;;;3.22;;
60203;SDS011;46068;52.132;4.618;2023-06-14T08:35:16;5.63;;;2.50;;
60203;SDS011;46068;52.132;4.618;2023-06-14T08:37:43;6.05;;;2.45;;
60203;SDS011;46068;52.132;4.618;2023-06-14T08:40:13;10.50;;;2.85;;
60203;SDS011;46068;52.132;4.618;2023-06-14T08:42:43;10.75;;;2.80;;
60203;SDS011;46068;52.132;4.618;2023-06-14T08:45:10;8.50;;;2.80;;
60203;SDS011;46068;52.132;4.618;2023-06-14T08:47:37;3.92;;;2.38;;
60203;SDS011;46068;52.132;4.618;2023-06-14T08:50:05;7.97;;;2.53;;
60203;SDS011;46068;52.132;4.618;2023-06-14T08:52:33;6.47;;;3.03;;
60203;SDS011;46068;52.132;4.618;2023-06-14T08:55:00;7.72;;;2.65;;
60203;SDS011;46068;52.132;4.618;2023-06-14T08:57:27;10.43;;;2.60;;
60203;SDS011;46068;52.132;4.618;2023-06-14T08:59:55;8.15;;;2.67;;
60203;SDS011;46068;52.132;4.618;2023-06-14T09:02:22;6.13;;;2.50;;
60203;SDS011;46068;52.132;4.618;2023-06-14T09:04:50;7.00;;;2.90;;
60203;SDS011;46068;52.132;4.618;2023-06-14T09:07:17;5.63;;;2.55;;
60203;SDS011;46068;52.132;4.618;2023-06-14T09:09:44;6.90;;;2.67;;
60203;SDS011;46068;52.132;4.618;2023-06-14T09:12:10;10.05;;;2.67;;
60203;SDS011;46068;52.132;4.618;2023-06-14T09:14:37;7.10;;;2.60;;
60203;SDS011;46068;52.132;4.618;2023-06-14T09:17:06;7.32;;;2.40;;
60203;SDS011;46068;52.132;4.618;2023-06-14T09:19:33;5.80;;;2.05;;
60203;SDS011;46068;52.132;4.618;2023-06-14T09:21:59;8.32;;;2.70;;
60203;SDS011;46068;52.132;4.618;2023-06-14T09:24:27;5.03;;;2.35;;
60203;SDS011;46068;52.132;4.618;2023-06-14T09:26:53;8.68;;;2.53;;
60203;SDS011;46068;52.132;4.618;2023-06-14T09:29:20;6.28;;;2.25;;
60203;SDS011;46068;52.132;4.618;2023-06-14T09:31:46;7.03;;;2.40;;
60203;SDS011;46068;52.132;4.618;2023-06-14T09:34:12;5.20;;;2.25;;
60203;SDS011;46068;52.132;4.618;2023-06-14T09:36:39;5.57;;;2.40;;
60203;SDS011;46068;52.132;4.618;2023-06-14T09:39:05;9.93;;;2.58;;
60203;SDS011;46068;52.132;4.618;2023-06-14T09:41:35;4.13;;;1.92;;
60203;SDS011;46068;52.132;4.618;2023-06-14T09:44:02;6.97;;;2.30;;
60203;SDS011;46068;52.132;4.618;2023-06-14T09:46:28;8.90;;;2.33;;
60203;SDS011;46068;52.132;4.618;2023-06-14T09:48:55;8.18;;;2.47;;
60203;SDS011;46068;52.132;4.618;2023-06-14T09:51:21;5.78;;;2.00;;
60203;SDS011;46068;52.132;4.618;2023-06-14T09:53:48;7.60;;;2.00;;
60203;SDS011;46068;52.132;4.618;2023-06-14T09:56:15;4.95;;;1.83;;
60203;SDS011;46068;52.132;4.618;2023-06-14T09:58:43;5.07;;;1.92;;
60203;SDS011;46068;52.132;4.618;2023-06-14T10:01:09;7.05;;;1.83;;
60203;SDS011;46068;52.132;4.618;2023-06-14T10:03:38;3.47;;;2.15;;
60203;SDS011;46068;52.132;4.618;2023-06-14T10:06:05;8.15;;;2.08;;
60203;SDS011;46068;52.132;4.618;2023-06-14T10:08:34;4.47;;;2.05;;
60203;SDS011;46068;52.132;4.618;2023-06-14T10:11:02;3.83;;;1.45;;
60203;SDS011;46068;52.132;4.618;2023-06-14T10:13:28;3.75;;;1.80;;
60203;SDS011;46068;52.132;4.618;2023-06-14T10:16:00;4.30;;;1.98;;
60203;SDS011;46068;52.132;4.618;2023-06-14T10:18:31;3.53;;;1.90;;
60203;SDS011;46068;52.132;4.618;2023-06-14T10:21:02;6.25;;;1.80;;
60203;SDS011;46068;52.132;4.618;2023-06-14T10:23:33;3.42;;;1.55;;
60203;SDS011;46068;52.132;4.618;2023-06-14T10:26:01;7.40;;;1.63;;
60203;SDS011;46068;52.132;4.618;2023-06-14T10:28:27;4.10;;;1.70;;
60203;SDS011;46068;52.132;4.618;2023-06-14T10:31:03;4.57;;;1.80;;
60203;SDS011;46068;52.132;4.618;2023-06-14T10:33:30;4.18;;;1.20;;
60203;SDS011;46068;52.132;4.618;2023-06-14T10:36:06;3.78;;;1.40;;
60203;SDS011;46068;52.132;4.618;2023-06-14T10:38:32;4.90;;;1.50;;
60203;SDS011;46068;52.132;4.618;2023-06-14T10:41:00;3.47;;;1.45;;
60203;SDS011;46068;52.132;4.618;2023-06-14T10:43:26;4.30;;;1.70;;
60203;SDS011;46068;52.132;4.618;2023-06-14T10:46:13;2.92;;;1.60;;
60203;SDS011;46068;52.132;4.618;2023-06-14T10:48:40;2.63;;;1.60;;
60203;SDS011;46068;52.132;4.618;2023-06-14T10:51:06;6.35;;;1.83;;
60203;SDS011;46068;52.132;4.618;2023-06-14T10:53:39;5.03;;;1.27;;
60203;SDS011;46068;52.132;4.618;2023-06-14T10:56:06;1.98;;;1.30;;
60203;SDS011;46068;52.132;4.618;2023-06-14T10:58:32;4.20;;;1.30;;
60203;SDS011;46068;52.132;4.618;2023-06-14T11:00:59;7.65;;;1.35;;
60203;SDS011;46068;52.132;4.618;2023-06-14T11:03:40;2.08;;;1.13;;
60203;SDS011;46068;52.132;4.618;2023-06-14T11:06:12;4.20;;;1.40;;
60203;SDS011;46068;52.132;4.618;2023-06-14T11:08:40;2.42;;;1.38;;
60203;SDS011;46068;52.132;4.618;2023-06-14T11:11:12;3.03;;;1.30;;
60203;SDS011;46068;52.132;4.618;2023-06-14T11:13:39;2.05;;;1.20;;
60203;SDS011;46068;52.132;4.618;2023-06-14T11:16:09;6.07;;;1.38;;
60203;SDS011;46068;52.132;4.618;2023-06-14T11:18:37;1.50;;;1.40;;
60203;SDS011;46068;52.132;4.618;2023-06-14T11:21:04;2.83;;;1.33;;
60203;SDS011;46068;52.132;4.618;2023-06-14T11:23:30;2.88;;;1.15;;
60203;SDS011;46068;52.132;4.618;2023-06-14T11:25:56;4.07;;;1.40;;
60203;SDS011;46068;52.132;4.618;2023-06-14T11:28:22;2.92;;;1.23;;
60203;SDS011;46068;52.132;4.618;2023-06-14T11:30:49;3.40;;;1.40;;
60203;SDS011;46068;52.132;4.618;2023-06-14T11:33:16;2.80;;;1.40;;
60203;SDS011;46068;52.132;4.618;2023-06-14T11:35:44;4.22;;;1.30;;
60203;SDS011;46068;52.132;4.618;2023-06-14T11:38:11;4.00;;;1.52;;
60203;SDS011;46068;52.132;4.618;2023-06-14T11:40:37;1.60;;;1.23;;
60203;SDS011;46068;52.132;4.618;2023-06-14T11:43:04;2.67;;;1.33;;
60203;SDS011;46068;52.132;4.618;2023-06-14T11:45:31;1.58;;;1.23;;
60203;SDS011;46068;52.132;4.618;2023-06-14T11:47:58;3.17;;;1.20;;
60203;SDS011;46068;52.132;4.618;2023-06-14T11:50:24;6.20;;;1.80;;
60203;SDS011;46068;52.132;4.618;2023-06-14T11:52:55;4.00;;;1.15;;
60203;SDS011;46068;52.132;4.618;2023-06-14T11:55:22;4.30;;;1.60;;
60203;SDS011;46068;52.132;4.618;2023-06-14T11:57:48;2.08;;;1.27;;
60203;SDS011;46068;52.132;4.618;2023-06-14T12:00:15;4.32;;;1.40;;
60203;SDS011;46068;52.132;4.618;2023-06-14T12:02:42;2.92;;;1.30;;
60203;SDS011;46068;52.132;4.618;2023-06-14T12:05:09;2.15;;;1.35;;
60203;SDS011;46068;52.132;4.618;2023-06-14T12:07:36;3.40;;;1.20;;
60203;SDS011;46068;52.132;4.618;2023-06-14T12:10:07;4.22;;;1.48;;
60203;SDS011;46068;52.132;4.618;2023-06-14T12:12:35;4.82;;;1.45;;
60203;SDS011;46068;52.132;4.618;2023-06-14T12:15:02;4.05;;;1.50;;
60203;SDS011;46068;52.132;4.618;2023-06-14T12:17:31;3.67;;;1.25;;
60203;SDS011;46068;52.132;4.618;2023-06-14T12:19:57;5.88;;;1.40;;
60203;SDS011;46068;52.132;4.618;2023-06-14T12:22:23;4.72;;;1.50;;
60203;SDS011;46068;52.132;4.618;2023-06-14T12:24:51;5.75;;;1.52;;
60203;SDS011;46068;52.132;4.618;2023-06-14T12:27:19;6.18;;;1.50;;
60203;SDS011;46068;52.132;4.618;2023-06-14T12:29:58;2.47;;;1.40;;
60203;SDS011;46068;52.132;4.618;2023-06-14T12:32:24;2.45;;;1.20;;
60203;SDS011;46068;52.132;4.618;2023-06-14T12:34:50;2.20;;;1.20;;
60203;SDS011;46068;52.132;4.618;2023-06-14T12:37:16;1.55;;;1.17;;
60203;SDS011;46068;52.132;4.618;2023-06-14T12:39:44;2.03;;;1.40;;
60203;SDS011;46068;52.132;4.618;2023-06-14T12:42:10;4.35;;;1.35;;
60203;SDS011;46068;52.132;4.618;2023-06-14T12:44:39;6.43;;;1.80;;
60203;SDS011;46068;52.132;4.618;2023-06-14T12:47:06;6.95;;;1.52;;
60203;SDS011;46068;52.132;4.618;2023-06-14T12:49:32;2.00;;;1.25;;
60203;SDS011;46068;52.132;4.618;2023-06-14T12:51:58;2.08;;;1.35;;
60203;SDS011;46068;52.132;4.618;2023-06-14T12:54:25;5.20;;;1.60;;
60203;SDS011;46068;52.132;4.618;2023-06-14T12:56:51;4.03;;;1.40;;
60203;SDS011;46068;52.132;4.618;2023-06-14T12:59:18;5.07;;;1.48;;
60203;SDS011;46068;52.132;4.618;2023-06-14T13:01:45;2.38;;;1.30;;
60203;SDS011;46068;52.132;4.618;2023-06-14T13:04:14;3.83;;;1.30;;
60203;SDS011;46068;52.132;4.618;2023-06-14T13:06:41;1.73;;;1.30;;
60203;SDS011;46068;52.132;4.618;2023-06-14T13:09:07;5.65;;;1.40;;
60203;SDS011;46068;52.132;4.618;2023-06-14T13:11:33;3.53;;;1.38;;
60203;SDS011;46068;52.132;4.618;2023-06-14T13:14:00;3.92;;;1.25;;
60203;SDS011;46068;52.132;4.618;2023-06-14T13:16:26;4.82;;;1.05;;
60203;SDS011;46068;52.132;4.618;2023-06-14T13:18:54;3.63;;;1.30;;
60203;SDS011;46068;52.132;4.618;2023-06-14T13:21:20;5.05;;;1.40;;
60203;SDS011;46068;52.132;4.618;2023-06-14T13:23:46;3.55;;;1.60;;
60203;SDS011;46068;52.132;4.618;2023-06-14T13:26:12;2.83;;;1.15;;
60203;SDS011;46068;52.132;4.618;2023-06-14T13:28:40;3.58;;;1.20;;
60203;SDS011;46068;52.132;4.618;2023-06-14T13:31:06;8.65;;;1.45;;
60203;SDS011;46068;52.132;4.618;2023-06-14T13:33:32;3.63;;;1.40;;
60203;SDS011;46068;52.132;4.618;2023-06-14T13:36:00;1.73;;;1.20;;
60203;SDS011;46068;52.132;4.618;2023-06-14T13:38:27;3.00;;;1.50;;
60203;SDS011;46068;52.132;4.618;2023-06-14T13:40:53;2.13;;;1.30;;
60203;SDS011;46068;52.132;4.618;2023-06-14T13:43:20;3.22;;;1.20;;
60203;SDS011;46068;52.132;4.618;2023-06-14T13:45:47;1.95;;;1.13;;
60203;SDS011;46068;52.132;4.618;2023-06-14T13:48:14;2.38;;;1.40;;
60203;SDS011;46068;52.132;4.618;2023-06-14T13:50:40;5.13;;;1.27;;
60203;SDS011;46068;52.132;4.618;2023-06-14T13:53:08;2.17;;;1.17;;
60203;SDS011;46068;52.132;4.618;2023-06-14T13:55:34;3.20;;;1.30;;
60203;SDS011;46068;52.132;4.618;2023-06-14T13:58:00;3.78;;;1.33;;
60203;SDS011;46068;52.132;4.618;2023-06-14T14:00:26;5.35;;;1.30;;
60203;SDS011;46068;52.132;4.618;2023-06-14T14:02:53;5.18;;;1.70;;
60203;SDS011;46068;52.132;4.618;2023-06-14T14:05:19;5.95;;;1.20;;
60203;SDS011;46068;52.132;4.618;2023-06-14T14:07:46;3.75;;;1.48;;
60203;SDS011;46068;52.132;4.618;2023-06-14T14:10:14;4.30;;;1.63;;
60203;SDS011;46068;52.132;4.618;2023-06-14T14:12:40;6.03;;;1.48;;
60203;SDS011;46068;52.132;4.618;2023-06-14T14:15:06;3.80;;;1.50;;
60203;SDS011;46068;52.132;4.618;2023-06-14T14:17:37;3.33;;;1.30;;
60203;SDS011;46068;52.132;4.618;2023-06-14T14:20:04;2.97;;;1.23;;
60203;SDS011;46068;52.132;4.618;2023-06-14T14:22:31;2.13;;;1.27;;
60203;SDS011;46068;52.132;4.618;2023-06-14T14:24:58;4.93;;;1.40;;
60203;SDS011;46068;52.132;4.618;2023-06-14T14:27:25;3.95;;;1.10;;
60203;SDS011;46068;52.132;4.618;2023-06-14T14:29:52;3.47;;;1.35;;
60203;SDS011;46068;52.132;4.618;2023-06-14T14:32:18;2.28;;;1.15;;
60203;SDS011;46068;52.132;4.618;2023-06-14T14:34:45;1.63;;;1.20;;
60203;SDS011;46068;52.132;4.618;2023-06-14T14:37:11;3.50;;;1.13;;
60203;SDS011;46068;52.132;4.618;2023-06-14T14:39:40;2.15;;;1.27;;
60203;SDS011;46068;52.132;4.618;2023-06-14T14:42:06;4.53;;;1.63;;
60203;SDS011;46068;52.132;4.618;2023-06-14T14:44:34;3.22;;;1.50;;